sensor_id;sensor_type;location;lat;lon;timestamp;pressure;altitude;pressure_sealevel;temperature;humidity
14067;BME280;7108;42.684;23.350;2023-02-16T00:01:26;96623.66;;;2.09;100.00
14067;BME280;7108;42.684;23.350;2023-02-16T00:03:54;96629.78;;;1.99;100.00
14067;BME280;7108;42.684;23.350;2023-02-16T00:06:20;96622.09;;;1.93;100.00
14067;BME280;7108;42.684;23.350;2023-02-16T00:08:47;96628.22;;;1.93;100.00
14067;BME280;7108;42.684;23.350;2023-02-16T00:11:20;96618.41;;;1.94;100.00
14067;BME280;7108;42.684;23.350;2023-02-16T00:14:08;96623.44;;;1.95;100.00
14067;BME280;7108;42.684;23.350;2023-02-16T00:16:34;96631.94;;;1.88;100.00
14067;BME280;7108;42.684;23.350;2023-02-16T00:19:00;96613.63;;;1.86;100.00
14067;BME280;7108;42.684;23.350;2023-02-16T00:21:26;96620.81;;;1.86;100.00
14067;BME280;7108;42.684;23.350;2023-02-16T00:23:51;96619.47;;;1.83;100.00
14067;BME280;7108;42.684;23.350;2023-02-16T00:26:20;96626.91;;;1.81;100.00
14067;BME280;7108;42.684;23.350;2023-02-16T00:28:48;96620.81;;;1.76;100.00
14067;BME280;7108;42.684;23.350;2023-02-16T00:31:19;96630.91;;;1.79;100.00
14067;BME280;7108;42.684;23.350;2023-02-16T00:33:45;96625.31;;;1.80;100.00
14067;BME280;7108;42.684;23.350;2023-02-16T00:36:11;96622.16;;;1.78;100.00
14067;BME280;7108;42.684;23.350;2023-02-16T00:38:36;96623.72;;;1.79;100.00
14067;BME280;7108;42.684;23.350;2023-02-16T00:41:02;96624.53;;;1.80;100.00
14067;BME280;7108;42.684;23.350;2023-02-16T00:43:28;96618.38;;;1.84;100.00
14067;BME280;7108;42.684;23.350;2023-02-16T00:45:55;96618.16;;;1.81;100.00
14067;BME280;7108;42.684;23.350;2023-02-16T00:48:22;96617.88;;;1.77;100.00
14067;BME280;7108;42.684;23.350;2023-02-16T00:50:48;96623.47;;;1.81;100.00
14067;BME280;7108;42.684;23.350;2023-02-16T00:53:13;96611.25;;;1.75;100.00
14067;BME280;7108;42.684;23.350;2023-02-16T00:55:40;96620.28;;;1.69;100.00
14067;BME280;7108;42.684;23.350;2023-02-16T00:58:28;96621.63;;;1.61;100.00
14067;BME280;7108;42.684;23.350;2023-02-16T01:00:59;96609.69;;;1.59;100.00
14067;BME280;7108;42.684;23.350;2023-02-16T01:03:28;96615.25;;;1.67;100.00
14067;BME280;7108;42.684;23.350;2023-02-16T01:05:54;96603.03;;;1.56;100.00
14067;BME280;7108;42.684;23.350;2023-02-16T01:08:39;96619.25;;;1.65;100.00
14067;BME280;7108;42.684;23.350;2023-02-16T01:11:24;96610.47;;;1.59;100.00
14067;BME280;7108;42.684;23.350;2023-02-16T01:13:52;96599.84;;;1.59;100.00
14067;BME280;7108;42.684;23.350;2023-02-16T01:18:44;96603.31;;;1.55;100.00
14067;BME280;7108;42.684;23.350;2023-02-16T01:21:09;96596.66;;;1.62;100.00
14067;BME280;7108;42.684;23.350;2023-02-16T01:23:36;96600.09;;;1.63;100.00
14067;BME280;7108;42.684;23.350;2023-02-16T01:26:02;96591.09;;;1.59;100.00
14067;BME280;7108;42.684;23.350;2023-02-16T01:28:27;96588.69;;;1.62;100.00
14067;BME280;7108;42.684;23.350;2023-02-16T01:30:54;96588.16;;;1.60;100.00
14067;BME280;7108;42.684;23.350;2023-02-16T01:33:19;96582.06;;;1.55;100.00
14067;BME280;7108;42.684;23.350;2023-02-16T01:35:45;96590.28;;;1.58;100.00
14067;BME280;7108;42.684;23.350;2023-02-16T01:38:23;96582.06;;;1.60;100.00
14067;BME280;7108;42.684;23.350;2023-02-16T01:44:14;96578.34;;;1.51;100.00
14067;BME280;7108;42.684;23.350;2023-02-16T01:46:50;96574.09;;;1.35;100.00
14067;BME280;7108;42.684;23.350;2023-02-16T01:49:18;96576.25;;;1.28;100.00
14067;BME280;7108;42.684;23.350;2023-02-16T01:55:12;96583.94;;;1.29;100.00
14067;BME280;7108;42.684;23.350;2023-02-16T01:57:40;96574.38;;;1.33;100.00
14067;BME280;7108;42.684;23.350;2023-02-16T02:02:59;96575.44;;;1.32;100.00
14067;BME280;7108;42.684;23.350;2023-02-16T02:05:44;96577.84;;;1.24;100.00
14067;BME280;7108;42.684;23.350;2023-02-16T02:11:02;96581.28;;;1.25;100.00
14067;BME280;7108;42.684;23.350;2023-02-16T02:14:02;96578.66;;;1.25;100.00
14067;BME280;7108;42.684;23.350;2023-02-16T02:16:30;96582.91;;;1.26;100.00
14067;BME280;7108;42.684;23.350;2023-02-16T02:18:55;96577.31;;;1.27;100.00
14067;BME280;7108;42.684;23.350;2023-02-16T02:25:10;96583.41;;;1.18;100.00
14067;BME280;7108;42.684;23.350;2023-02-16T02:36:37;96569.34;;;1.07;100.00
14067;BME280;7108;42.684;23.350;2023-02-16T02:41:55;96570.41;;;1.11;100.00
14067;BME280;7108;42.684;23.350;2023-02-16T02:44:29;96574.13;;;1.15;100.00
14067;BME280;7108;42.684;23.350;2023-02-16T02:46:55;96569.09;;;1.19;100.00
14067;BME280;7108;42.684;23.350;2023-02-16T02:49:21;96565.38;;;1.20;100.00
14067;BME280;7108;42.684;23.350;2023-02-16T02:51:48;96564.84;;;1.18;100.00
14067;BME280;7108;42.684;23.350;2023-02-16T02:54:33;96569.88;;;1.14;100.00
14067;BME280;7108;42.684;23.350;2023-02-16T02:57:39;96579.97;;;1.07;100.00
14067;BME280;7108;42.684;23.350;2023-02-16T03:00:28;96580.75;;;1.13;100.00
14067;BME280;7108;42.684;23.350;2023-02-16T03:08:31;96576.50;;;1.12;100.00
14067;BME280;7108;42.684;23.350;2023-02-16T03:11:14;96578.38;;;1.06;100.00
14067;BME280;7108;42.684;23.350;2023-02-16T03:14:03;96574.41;;;1.04;100.00
14067;BME280;7108;42.684;23.350;2023-02-16T03:16:35;96572.28;;;1.11;100.00
14067;BME280;7108;42.684;23.350;2023-02-16T03:19:04;96579.16;;;1.07;100.00
14067;BME280;7108;42.684;23.350;2023-02-16T03:21:49;96579.69;;;0.99;100.00
14067;BME280;7108;42.684;23.350;2023-02-16T03:24:33;96581.31;;;1.05;100.00
14067;BME280;7108;42.684;23.350;2023-02-16T03:27:21;96575.72;;;1.01;100.00
14067;BME280;7108;42.684;23.350;2023-02-16T03:30:09;96574.66;;;1.02;100.00
14067;BME280;7108;42.684;23.350;2023-02-16T03:32:36;96574.41;;;0.99;100.00
14067;BME280;7108;42.684;23.350;2023-02-16T03:35:02;96572.28;;;0.96;100.00
14067;BME280;7108;42.684;23.350;2023-02-16T03:37:28;96568.81;;;0.90;100.00
14067;BME280;7108;42.684;23.350;2023-02-16T03:39:54;96571.19;;;0.92;100.00
14067;BME280;7108;42.684;23.350;2023-02-16T03:42:48;96564.56;;;0.89;100.00
14067;BME280;7108;42.684;23.350;2023-02-16T03:45:14;96558.97;;;0.86;100.00
14067;BME280;7108;42.684;23.350;2023-02-16T03:47:39;96572.25;;;0.86;100.00
14067;BME280;7108;42.684;23.350;2023-02-16T03:50:05;96577.03;;;0.84;100.00
14067;BME280;7108;42.684;23.350;2023-02-16T03:52:31;96561.38;;;0.72;100.00
14067;BME280;7108;42.684;23.350;2023-02-16T03:54:56;96572.00;;;0.82;100.00
14067;BME280;7108;42.684;23.350;2023-02-16T03:57:21;96574.66;;;0.77;100.00
14067;BME280;7108;42.684;23.350;2023-02-16T03:59:47;96577.31;;;0.77;100.00
14067;BME280;7108;42.684;23.350;2023-02-16T04:02:12;96577.03;;;0.79;100.00
14067;BME280;7108;42.684;23.350;2023-02-16T04:04:38;96574.13;;;0.80;100.00
14067;BME280;7108;42.684;23.350;2023-02-16T04:07:03;96565.38;;;0.80;100.00
14067;BME280;7108;42.684;23.350;2023-02-16T04:09:28;96564.28;;;0.81;100.00
14067;BME280;7108;42.684;23.350;2023-02-16T04:11:54;96564.56;;;0.84;100.00
14067;BME280;7108;42.684;23.350;2023-02-16T04:14:38;96552.59;;;0.62;100.00
14067;BME280;7108;42.684;23.350;2023-02-16T04:17:03;96557.91;;;0.67;100.00
14067;BME280;7108;42.684;23.350;2023-02-16T04:19:29;96555.53;;;0.65;100.00
14067;BME280;7108;42.684;23.350;2023-02-16T04:21:54;96555.53;;;0.70;100.00
14067;BME280;7108;42.684;23.350;2023-02-16T04:24:20;96563.22;;;0.67;100.00
14067;BME280;7108;42.684;23.350;2023-02-16T04:26:45;96554.50;;;0.71;100.00
14067;BME280;7108;42.684;23.350;2023-02-16T04:29:12;96551.28;;;0.69;100.00
14067;BME280;7108;42.684;23.350;2023-02-16T04:31:37;96559.25;;;0.74;100.00
14067;BME280;7108;42.684;23.350;2023-02-16T04:34:02;96561.38;;;0.77;100.00
14067;BME280;7108;42.684;23.350;2023-02-16T04:36:28;96562.44;;;0.66;100.00
14067;BME280;7108;42.684;23.350;2023-02-16T04:38:53;96558.69;;;0.67;100.00
14067;BME280;7108;42.684;23.350;2023-02-16T04:41:19;96560.56;;;0.67;100.00
14067;BME280;7108;42.684;23.350;2023-02-16T04:43:44;96563.50;;;0.65;100.00
14067;BME280;7108;42.684;23.350;2023-02-16T04:46:09;96559.78;;;0.66;100.00
14067;BME280;7108;42.684;23.350;2023-02-16T04:48:35;96552.88;;;0.61;100.00
14067;BME280;7108;42.684;23.350;2023-02-16T04:51:03;96568.25;;;0.68;100.00
14067;BME280;7108;42.684;23.350;2023-02-16T04:53:28;96568.25;;;0.68;100.00
14067;BME280;7108;42.684;23.350;2023-02-16T04:55:54;96568.53;;;0.72;100.00
14067;BME280;7108;42.684;23.350;2023-02-16T04:58:20;96568.78;;;0.65;100.00
14067;BME280;7108;42.684;23.350;2023-02-16T05:00:45;96571.72;;;0.59;100.00
14067;BME280;7108;42.684;23.350;2023-02-16T05:03:10;96565.56;;;0.54;100.00
14067;BME280;7108;42.684;23.350;2023-02-16T05:05:36;96573.75;;;0.37;100.00
14067;BME280;7108;42.684;23.350;2023-02-16T05:08:02;96575.91;;;0.45;100.00
14067;BME280;7108;42.684;23.350;2023-02-16T05:10:28;96562.63;;;0.35;100.00
14067;BME280;7108;42.684;23.350;2023-02-16T05:12:53;96575.66;;;0.47;100.00
14067;BME280;7108;42.684;23.350;2023-02-16T05:15:37;96577.19;;;0.33;100.00
14067;BME280;7108;42.684;23.350;2023-02-16T05:18:03;96571.09;;;0.27;100.00
14067;BME280;7108;42.684;23.350;2023-02-16T05:20:28;96590.47;;;0.38;100.00
14067;BME280;7108;42.684;23.350;2023-02-16T05:23:16;96580.66;;;0.33;100.00
14067;BME280;7108;42.684;23.350;2023-02-16T05:25:42;96582.00;;;0.41;100.00
14067;BME280;7108;42.684;23.350;2023-02-16T05:28:07;96594.16;;;0.42;100.00
14067;BME280;7108;42.684;23.350;2023-02-16T05:30:33;96585.97;;;0.38;100.00
14067;BME280;7108;42.684;23.350;2023-02-16T05:32:58;96596.88;;;0.47;100.00
14067;BME280;7108;42.684;23.350;2023-02-16T05:35:23;96596.31;;;0.40;100.00
14067;BME280;7108;42.684;23.350;2023-02-16T05:37:49;96597.88;;;0.36;100.00
14067;BME280;7108;42.684;23.350;2023-02-16T05:40:14;96598.09;;;0.29;100.00
14067;BME280;7108;42.684;23.350;2023-02-16T05:42:40;96598.69;;;0.46;100.00
14067;BME280;7108;42.684;23.350;2023-02-16T05:45:05;96603.19;;;0.41;100.00
14067;BME280;7108;42.684;23.350;2023-02-16T05:47:31;96601.09;;;0.53;100.00
14067;BME280;7108;42.684;23.350;2023-02-16T05:49:56;96599.53;;;0.52;100.00
14067;BME280;7108;42.684;23.350;2023-02-16T05:52:22;96602.44;;;0.55;100.00
14067;BME280;7108;42.684;23.350;2023-02-16T05:54:48;96606.69;;;0.56;100.00
14067;BME280;7108;42.684;23.350;2023-02-16T05:57:13;96597.41;;;0.63;100.00
14067;BME280;7108;42.684;23.350;2023-02-16T05:59:39;96607.22;;;0.58;100.00
14067;BME280;7108;42.684;23.350;2023-02-16T06:02:04;96596.06;;;0.56;100.00
14067;BME280;7108;42.684;23.350;2023-02-16T06:04:29;96612.25;;;0.60;100.00
14067;BME280;7108;42.684;23.350;2023-02-16T06:06:56;96602.44;;;0.65;100.00
14067;BME280;7108;42.684;23.350;2023-02-16T06:09:22;96601.41;;;0.66;100.00
14067;BME280;7108;42.684;23.350;2023-02-16T06:11:47;96614.69;;;0.76;100.00
14067;BME280;7108;42.684;23.350;2023-02-16T06:14:18;96611.53;;;0.89;100.00
14067;BME280;7108;42.684;23.350;2023-02-16T06:16:46;96616.84;;;0.94;100.00
14067;BME280;7108;42.684;23.350;2023-02-16T06:19:13;96630.66;;;1.06;100.00
14067;BME280;7108;42.684;23.350;2023-02-16T06:21:39;96622.97;;;1.29;100.00
14067;BME280;7108;42.684;23.350;2023-02-16T06:24:06;96628.81;;;1.66;100.00
14067;BME280;7108;42.684;23.350;2023-02-16T06:26:31;96630.59;;;1.90;100.00
14067;BME280;7108;42.684;23.350;2023-02-16T06:28:57;96629.03;;;1.94;100.00
14067;BME280;7108;42.684;23.350;2023-02-16T06:31:22;96629.03;;;1.89;100.00
14067;BME280;7108;42.684;23.350;2023-02-16T06:33:49;96635.13;;;1.90;100.00
14067;BME280;7108;42.684;23.350;2023-02-16T06:36:18;96638.84;;;1.89;100.00
14067;BME280;7108;42.684;23.350;2023-02-16T06:38:44;96639.13;;;1.92;100.00
14067;BME280;7108;42.684;23.350;2023-02-16T06:41:11;96646.81;;;1.89;100.00
14067;BME280;7108;42.684;23.350;2023-02-16T06:43:36;96629.56;;;1.86;100.00
14067;BME280;7108;42.684;23.350;2023-02-16T06:46:02;96631.94;;;1.83;100.00
14067;BME280;7108;42.684;23.350;2023-02-16T06:48:27;96641.22;;;1.90;100.00
14067;BME280;7108;42.684;23.350;2023-02-16T06:50:53;96634.34;;;1.94;100.00
14067;BME280;7108;42.684;23.350;2023-02-16T06:53:19;96637.47;;;2.06;100.00
14067;BME280;7108;42.684;23.350;2023-02-16T06:55:45;96637.72;;;2.14;100.00
14067;BME280;7108;42.684;23.350;2023-02-16T06:58:11;96634.25;;;2.24;100.00
14067;BME280;7108;42.684;23.350;2023-02-16T07:00:37;96627.88;;;2.25;100.00
14067;BME280;7108;42.684;23.350;2023-02-16T07:03:02;96624.91;;;2.31;100.00
14067;BME280;7108;42.684;23.350;2023-02-16T07:05:28;96637.09;;;2.47;100.00
14067;BME280;7108;42.684;23.350;2023-02-16T07:07:53;96640.25;;;2.49;100.00
14067;BME280;7108;42.684;23.350;2023-02-16T07:10:19;96634.69;;;2.51;100.00
14067;BME280;7108;42.684;23.350;2023-02-16T07:12:45;96639.41;;;2.58;100.00
14067;BME280;7108;42.684;23.350;2023-02-16T07:15:11;96623.38;;;2.73;100.00
14067;BME280;7108;42.684;23.350;2023-02-16T07:17:37;96623.00;;;2.95;100.00
14067;BME280;7108;42.684;23.350;2023-02-16T07:20:03;96616.03;;;3.37;100.00
14067;BME280;7108;42.684;23.350;2023-02-16T07:22:32;96609.06;;;3.41;100.00
14067;BME280;7108;42.684;23.350;2023-02-16T07:24:58;96598.75;;;3.63;100.00
14067;BME280;7108;42.684;23.350;2023-02-16T07:27:25;96599.75;;;3.72;100.00
14067;BME280;7108;42.684;23.350;2023-02-16T07:29:51;96599.78;;;3.67;100.00
14067;BME280;7108;42.684;23.350;2023-02-16T07:32:16;96600.84;;;3.71;100.00
14067;BME280;7108;42.684;23.350;2023-02-16T07:34:41;96600.53;;;4.00;100.00
14067;BME280;7108;42.684;23.350;2023-02-16T07:37:07;96587.84;;;4.34;100.00
14067;BME280;7108;42.684;23.350;2023-02-16T07:39:32;96587.84;;;4.76;100.00
14067;BME280;7108;42.684;23.350;2023-02-16T07:42:02;96590.38;;;5.22;100.00
14067;BME280;7108;42.684;23.350;2023-02-16T07:44:27;96591.47;;;5.53;100.00
14067;BME280;7108;42.684;23.350;2023-02-16T07:46:53;96579.81;;;5.81;100.00
14067;BME280;7108;42.684;23.350;2023-02-16T07:49:18;96579.13;;;5.89;100.00
14067;BME280;7108;42.684;23.350;2023-02-16T07:51:44;96580.13;;;5.93;100.00
14067;BME280;7108;42.684;23.350;2023-02-16T07:54:09;96583.09;;;6.05;100.00
14067;BME280;7108;42.684;23.350;2023-02-16T07:56:34;96590.25;;;6.09;100.00
14067;BME280;7108;42.684;23.350;2023-02-16T07:59:01;96588.09;;;6.11;100.00
14067;BME280;7108;42.684;23.350;2023-02-16T08:01:27;96580.16;;;6.06;100.00
14067;BME280;7108;42.684;23.350;2023-02-16T08:03:54;96594.00;;;5.95;100.00
14067;BME280;7108;42.684;23.350;2023-02-16T08:06:20;96597.22;;;5.79;100.00
14067;BME280;7108;42.684;23.350;2023-02-16T08:08:46;96600.41;;;5.81;100.00
14067;BME280;7108;42.684;23.350;2023-02-16T08:11:14;96587.09;;;5.76;100.00
14067;BME280;7108;42.684;23.350;2023-02-16T08:13:40;96593.69;;;5.83;100.00
14067;BME280;7108;42.684;23.350;2023-02-16T08:16:14;96591.78;;;5.84;100.00
14067;BME280;7108;42.684;23.350;2023-02-16T08:18:39;96598.31;;;5.78;100.00
14067;BME280;7108;42.684;23.350;2023-02-16T08:21:10;96597.16;;;5.65;100.00
14067;BME280;7108;42.684;23.350;2023-02-16T08:23:51;96600.53;;;5.71;100.00
14067;BME280;7108;42.684;23.350;2023-02-16T08:26:19;96598.66;;;5.71;100.00
14067;BME280;7108;42.684;23.350;2023-02-16T08:28:47;96598.75;;;5.66;100.00
14067;BME280;7108;42.684;23.350;2023-02-16T08:31:26;96611.63;;;5.64;100.00
14067;BME280;7108;42.684;23.350;2023-02-16T08:33:54;96612.38;;;5.51;100.00
14067;BME280;7108;42.684;23.350;2023-02-16T08:36:23;96604.53;;;5.41;100.00
14067;BME280;7108;42.684;23.350;2023-02-16T08:38:49;96606.69;;;5.39;100.00
14067;BME280;7108;42.684;23.350;2023-02-16T08:41:22;96609.94;;;5.36;100.00
14067;BME280;7108;42.684;23.350;2023-02-16T08:43:49;96610.03;;;5.31;100.00
14067;BME280;7108;42.684;23.350;2023-02-16T08:46:16;96606.78;;;5.16;100.00
14067;BME280;7108;42.684;23.350;2023-02-16T08:48:42;96604.78;;;5.08;100.00
14067;BME280;7108;42.684;23.350;2023-02-16T08:51:16;96602.50;;;5.15;100.00
14067;BME280;7108;42.684;23.350;2023-02-16T08:53:45;96598.25;;;5.14;100.00
14067;BME280;7108;42.684;23.350;2023-02-16T08:56:14;96605.03;;;5.25;100.00
14067;BME280;7108;42.684;23.350;2023-02-16T08:58:41;96592.63;;;5.16;100.00
14067;BME280;7108;42.684;23.350;2023-02-16T09:01:07;96587.47;;;5.19;100.00
14067;BME280;7108;42.684;23.350;2023-02-16T09:03:34;96588.16;;;5.11;100.00
14067;BME280;7108;42.684;23.350;2023-02-16T09:06:02;96587.94;;;5.08;100.00
14067;BME280;7108;42.684;23.350;2023-02-16T09:08:28;96595.31;;;5.16;100.00
14067;BME280;7108;42.684;23.350;2023-02-16T09:10:54;96603.19;;;5.07;100.00
14067;BME280;7108;42.684;23.350;2023-02-16T09:13:19;96591.41;;;5.08;100.00
14067;BME280;7108;42.684;23.350;2023-02-16T09:15:46;96584.81;;;5.01;100.00
14067;BME280;7108;42.684;23.350;2023-02-16T09:18:12;96586.78;;;5.14;100.00
14067;BME280;7108;42.684;23.350;2023-02-16T09:20:42;96584.31;;;5.17;100.00
14067;BME280;7108;42.684;23.350;2023-02-16T09:23:09;96583.03;;;5.15;100.00
14067;BME280;7108;42.684;23.350;2023-02-16T09:25:36;96582.81;;;5.11;100.00
14067;BME280;7108;42.684;23.350;2023-02-16T09:28:03;96578.47;;;5.15;100.00
14067;BME280;7108;42.684;23.350;2023-02-16T09:30:28;96573.34;;;5.18;100.00
14067;BME280;7108;42.684;23.350;2023-02-16T09:32:54;96565.25;;;5.23;100.00
14067;BME280;7108;42.684;23.350;2023-02-16T09:35:20;96560.19;;;5.22;100.00
14067;BME280;7108;42.684;23.350;2023-02-16T09:37:46;96570.13;;;5.35;100.00
14067;BME280;7108;42.684;23.350;2023-02-16T09:40:12;96569.56;;;5.38;100.00
14067;BME280;7108;42.684;23.350;2023-02-16T09:45:12;96565.81;;;5.52;100.00
14067;BME280;7108;42.684;23.350;2023-02-16T09:47:44;96564.47;;;5.55;100.00
14067;BME280;7108;42.684;23.350;2023-02-16T09:50:16;96562.19;;;5.62;100.00
14067;BME280;7108;42.684;23.350;2023-02-16T09:53:03;96560.34;;;5.62;100.00
14067;BME280;7108;42.684;23.350;2023-02-16T09:55:53;96546.97;;;5.62;100.00
14067;BME280;7108;42.684;23.350;2023-02-16T09:58:29;96543.59;;;5.70;100.00
14067;BME280;7108;42.684;23.350;2023-02-16T10:01:43;96542.41;;;5.63;100.00
14067;BME280;7108;42.684;23.350;2023-02-16T10:07:27;96534.03;;;5.83;100.00
14067;BME280;7108;42.684;23.350;2023-02-16T10:09:57;96534.66;;;5.93;100.00
14067;BME280;7108;42.684;23.350;2023-02-16T10:12:30;96532.16;;;5.96;100.00
14067;BME280;7108;42.684;23.350;2023-02-16T10:15:06;96526.75;;;6.01;100.00
14067;BME280;7108;42.684;23.350;2023-02-16T10:20:17;96520.88;;;6.13;100.00
14067;BME280;7108;42.684;23.350;2023-02-16T10:25:53;96505.22;;;6.20;100.00
14067;BME280;7108;42.684;23.350;2023-02-16T10:28:44;96515.63;;;6.35;100.00
14067;BME280;7108;42.684;23.350;2023-02-16T10:31:37;96514.50;;;6.36;100.00
14067;BME280;7108;42.684;23.350;2023-02-16T10:34:30;96509.13;;;6.49;100.00
14067;BME280;7108;42.684;23.350;2023-02-16T10:39:47;96500.31;;;6.62;100.00
14067;BME280;7108;42.684;23.350;2023-02-16T10:42:28;96497.50;;;6.67;100.00
14067;BME280;7108;42.684;23.350;2023-02-16T10:47:42;96489.94;;;6.69;100.00
14067;BME280;7108;42.684;23.350;2023-02-16T10:50:25;96489.91;;;6.82;100.00
14067;BME280;7108;42.684;23.350;2023-02-16T10:52:56;96475.50;;;6.92;98.36
14067;BME280;7108;42.684;23.350;2023-02-16T10:55:22;96484.38;;;7.01;99.08
14067;BME280;7108;42.684;23.350;2023-02-16T10:57:57;96471.47;;;7.03;96.14
14067;BME280;7108;42.684;23.350;2023-02-16T11:00:31;96478.97;;;7.14;94.65
14067;BME280;7108;42.684;23.350;2023-02-16T11:03:01;96466.72;;;7.21;94.33
14067;BME280;7108;42.684;23.350;2023-02-16T11:05:35;96462.81;;;7.27;94.14
14067;BME280;7108;42.684;23.350;2023-02-16T11:08:03;96464.28;;;7.33;92.27
14067;BME280;7108;42.684;23.350;2023-02-16T11:10:39;96456.88;;;7.39;91.01
14067;BME280;7108;42.684;23.350;2023-02-16T11:13:09;96438.91;;;7.39;91.18
14067;BME280;7108;42.684;23.350;2023-02-16T11:15:42;96448.94;;;7.56;89.26
14067;BME280;7108;42.684;23.350;2023-02-16T11:18:28;96448.84;;;7.69;88.30
14067;BME280;7108;42.684;23.350;2023-02-16T11:20:56;96438.47;;;7.76;86.31
14067;BME280;7108;42.684;23.350;2023-02-16T11:23:34;96442.31;;;7.92;82.63
14067;BME280;7108;42.684;23.350;2023-02-16T11:26:10;96437.41;;;7.94;81.65
14067;BME280;7108;42.684;23.350;2023-02-16T11:28:47;96433.78;;;7.98;81.27
14067;BME280;7108;42.684;23.350;2023-02-16T11:31:38;96428.19;;;8.17;78.81
14067;BME280;7108;42.684;23.350;2023-02-16T11:34:11;96432.00;;;8.24;79.63
14067;BME280;7108;42.684;23.350;2023-02-16T11:36:43;96419.69;;;8.32;78.15
14067;BME280;7108;42.684;23.350;2023-02-16T11:41:43;96412.59;;;8.44;75.77
14067;BME280;7108;42.684;23.350;2023-02-16T11:44:26;96417.66;;;8.54;75.78
14067;BME280;7108;42.684;23.350;2023-02-16T11:46:54;96414.03;;;8.67;72.12
14067;BME280;7108;42.684;23.350;2023-02-16T11:51:56;96400.44;;;8.80;71.60
14067;BME280;7108;42.684;23.350;2023-02-16T11:54:22;96409.88;;;8.95;70.48
14067;BME280;7108;42.684;23.350;2023-02-16T11:57:02;96403.56;;;9.08;71.14
14067;BME280;7108;42.684;23.350;2023-02-16T11:59:33;96401.31;;;9.18;69.65
14067;BME280;7108;42.684;23.350;2023-02-16T12:02:34;96396.88;;;9.30;67.82
14067;BME280;7108;42.684;23.350;2023-02-16T12:06:11;96392.69;;;9.41;66.88
14067;BME280;7108;42.684;23.350;2023-02-16T12:14:08;96378.09;;;9.59;63.69
14067;BME280;7108;42.684;23.350;2023-02-16T12:16:56;96373.31;;;9.65;62.19
14067;BME280;7108;42.684;23.350;2023-02-16T12:19:39;96376.09;;;9.77;63.23
14067;BME280;7108;42.684;23.350;2023-02-16T12:27:54;96353.88;;;10.17;59.77
14067;BME280;7108;42.684;23.350;2023-02-16T12:30:27;96346.66;;;10.29;58.64
14067;BME280;7108;42.684;23.350;2023-02-16T12:33:25;96347.72;;;10.37;59.11
14067;BME280;7108;42.684;23.350;2023-02-16T12:38:33;96338.59;;;10.49;56.85
14067;BME280;7108;42.684;23.350;2023-02-16T12:43:52;96335.28;;;10.64;55.75
14067;BME280;7108;42.684;23.350;2023-02-16T12:46:23;96324.94;;;10.66;55.87
14067;BME280;7108;42.684;23.350;2023-02-16T12:48:59;96330.75;;;10.77;57.21
14067;BME280;7108;42.684;23.350;2023-02-16T12:51:37;96318.63;;;10.83;57.58
14067;BME280;7108;42.684;23.350;2023-02-16T12:54:13;96322.34;;;10.90;55.92
14067;BME280;7108;42.684;23.350;2023-02-16T12:56:44;96312.94;;;10.96;55.50
14067;BME280;7108;42.684;23.350;2023-02-16T12:59:43;96309.69;;;11.03;54.24
14067;BME280;7108;42.684;23.350;2023-02-16T13:02:27;96300.81;;;11.02;54.04
14067;BME280;7108;42.684;23.350;2023-02-16T13:05:02;96305.31;;;11.10;53.78
14067;BME280;7108;42.684;23.350;2023-02-16T13:07:41;96297.13;;;11.18;53.77
14067;BME280;7108;42.684;23.350;2023-02-16T13:12:41;96288.16;;;11.26;53.43
14067;BME280;7108;42.684;23.350;2023-02-16T13:15:14;96294.03;;;11.40;54.01
14067;BME280;7108;42.684;23.350;2023-02-16T13:17:47;96285.94;;;11.40;53.31
14067;BME280;7108;42.684;23.350;2023-02-16T13:20:16;96288.72;;;11.44;51.80
14067;BME280;7108;42.684;23.350;2023-02-16T13:28:32;96276.16;;;11.48;51.26
14067;BME280;7108;42.684;23.350;2023-02-16T13:33:59;96272.56;;;11.56;51.65
14067;BME280;7108;42.684;23.350;2023-02-16T13:44:46;96272.19;;;11.33;50.69
14067;BME280;7108;42.684;23.350;2023-02-16T13:47:18;96271.44;;;11.33;51.12
14067;BME280;7108;42.684;23.350;2023-02-16T13:49:46;96271.97;;;11.26;50.61
14067;BME280;7108;42.684;23.350;2023-02-16T13:52:31;96270.84;;;11.27;50.66
14067;BME280;7108;42.684;23.350;2023-02-16T13:54:59;96264.56;;;11.23;51.13
14067;BME280;7108;42.684;23.350;2023-02-16T14:00:44;96257.66;;;11.14;51.26
14067;BME280;7108;42.684;23.350;2023-02-16T14:05:51;96258.34;;;11.11;50.60
14067;BME280;7108;42.684;23.350;2023-02-16T14:13:50;96263.16;;;11.06;50.99
14067;BME280;7108;42.684;23.350;2023-02-16T14:18:46;96258.25;;;11.08;51.59
14067;BME280;7108;42.684;23.350;2023-02-16T14:21:40;96260.81;;;11.04;51.56
14067;BME280;7108;42.684;23.350;2023-02-16T14:26:57;96249.44;;;10.87;53.32
14067;BME280;7108;42.684;23.350;2023-02-16T14:29:30;96250.00;;;10.80;52.17
14067;BME280;7108;42.684;23.350;2023-02-16T14:34:41;96254.56;;;10.68;52.46
14067;BME280;7108;42.684;23.350;2023-02-16T14:39:46;96246.28;;;10.73;53.29
14067;BME280;7108;42.684;23.350;2023-02-16T14:42:16;96251.53;;;10.69;53.18
14067;BME280;7108;42.684;23.350;2023-02-16T14:45:40;96252.66;;;10.68;52.14
14067;BME280;7108;42.684;23.350;2023-02-16T14:48:39;96254.44;;;10.64;52.30
14067;BME280;7108;42.684;23.350;2023-02-16T14:51:26;96255.41;;;10.60;53.47
14067;BME280;7108;42.684;23.350;2023-02-16T14:56:46;96247.09;;;10.53;51.90
14067;BME280;7108;42.684;23.350;2023-02-16T14:59:29;96245.06;;;10.50;51.99
14067;BME280;7108;42.684;23.350;2023-02-16T15:01:56;96244.72;;;10.51;51.76
14067;BME280;7108;42.684;23.350;2023-02-16T15:04:30;96237.53;;;10.44;52.65
14067;BME280;7108;42.684;23.350;2023-02-16T15:06:59;96234.44;;;10.33;53.30
14067;BME280;7108;42.684;23.350;2023-02-16T15:09:32;96243.53;;;10.29;53.77
14067;BME280;7108;42.684;23.350;2023-02-16T15:12:11;96237.41;;;10.20;55.37
14067;BME280;7108;42.684;23.350;2023-02-16T15:15:04;96241.19;;;10.07;57.26
14067;BME280;7108;42.684;23.350;2023-02-16T15:17:39;96239.47;;;10.02;58.77
14067;BME280;7108;42.684;23.350;2023-02-16T15:20:26;96246.19;;;9.88;60.25
14067;BME280;7108;42.684;23.350;2023-02-16T15:23:06;96245.13;;;9.80;61.26